TimeEDT,TemperatureF,Dew PointF,Humidity,Sea Level PressureIn,VisibilityMPH,Wind Direction,Wind SpeedMPH,Gust SpeedMPH,PrecipitationIn,Events,Conditions,WindDirDegrees,DateUTC
12:53 AM,72.0,70.0,93,29.86,8.0,West,4.6,-,N/A,,Clear,270,2013-07-25 04:53:00
1:53 AM,72.0,70.0,93,29.86,5.0,WNW,4.6,-,N/A,,Clear,290,2013-07-25 05:53:00
2:53 AM,72.0,70.0,93,29.85,5.0,NW,4.6,-,N/A,,Clear,310,2013-07-25 06:53:00
3:53 AM,71.1,69.1,93,29.85,5.0,NNW,4.6,-,N/A,,Clear,330,2013-07-25 07:53:00
4:53 AM,71.1,68.0,90,29.86,5.0,North,3.5,-,N/A,,Clear,360,2013-07-25 08:53:00
5:53 AM,70.0,66.9,90,29.87,9.0,Calm,Calm,-,0.01,,Clear,0,2013-07-25 09:53:00
6:53 AM,69.1,66.0,90,29.90,8.0,Calm,Calm,-,N/A,,Clear,0,2013-07-25 10:53:00
7:53 AM,71.1,66.9,87,29.91,8.0,Calm,Calm,-,N/A,,Clear,0,2013-07-25 11:53:00
8:53 AM,75.0,66.9,76,29.92,10.0,North,3.5,-,N/A,,Clear,360,2013-07-25 12:53:00
9:53 AM,77.0,66.0,69,29.94,10.0,ENE,3.5,-,N/A,,Clear,70,2013-07-25 13:53:00
10:53 AM,79.0,66.0,64,29.94,10.0,ESE,4.6,-,N/A,,Clear,120,2013-07-25 14:53:00
11:53 AM,80.1,66.9,64,29.95,10.0,East,9.2,-,N/A,,Scattered Clouds,100,2013-07-25 15:53:00
12:04 PM,80.6,66.2,61,30.00,10.0,East,8.1,-,N/A,,Mostly Cloudy,90,2013-07-25 16:04:00
12:51 PM,80.6,68.0,65,30.00,10.0,East,6.9,-,N/A,,Scattered Clouds,90,2013-07-25 16:51:00
12:53 PM,81.0,66.9,62,29.96,10.0,East,5.8,-,N/A,,Scattered Clouds,100,2013-07-25 16:53:00
1:53 PM,82.9,66.9,58,29.96,10.0,Variable,4.6,-,N/A,,Mostly Cloudy,0,2013-07-25 17:53:00
2:53 PM,82.9,66.0,56,29.95,10.0,South,5.8,-,N/A,,Scattered Clouds,190,2013-07-25 18:53:00
3:53 PM,84.0,66.0,55,29.95,10.0,ESE,4.6,-,N/A,,Overcast,120,2013-07-25 19:53:00
4:53 PM,84.9,66.9,55,29.94,10.0,SSE,5.8,-,N/A,,Partly Cloudy,150,2013-07-25 20:53:00
5:53 PM,84.0,61.0,46,29.95,10.0,WSW,6.9,-,N/A,,Clear,250,2013-07-25 21:53:00
6:53 PM,78.1,64.9,64,29.96,10.0,NNW,9.2,-,N/A,,Clear,340,2013-07-25 22:53:00
7:53 PM,77.0,64.9,66,29.98,10.0,West,5.8,-,N/A,,Clear,280,2013-07-25 23:53:00
8:53 PM,73.9,64.0,71,29.99,10.0,WNW,3.5,-,N/A,,Clear,300,2013-07-26 00:53:00
9:53 PM,73.9,63.0,68,30.00,10.0,NW,3.5,-,N/A,,Clear,320,2013-07-26 01:53:00
10:53 PM,72.0,64.9,78,30.01,10.0,Calm,Calm,-,N/A,,Clear,0,2013-07-26 02:53:00
11:53 PM,72.0,66.0,81,30.01,10.0,Calm,Calm,-,N/A,,Clear,0,2013-07-26 03:53:00